createdAt,value
2022-09-23T00:18:46.657Z,101641.66
2022-09-23T00:21:19.577Z,101629.69
2022-09-23T00:23:46.773Z,101628.00
2022-09-23T00:26:16.341Z,101671.03
2022-09-23T00:28:44.021Z,101662.25
2022-09-23T00:31:16.832Z,101654.63
2022-09-23T00:33:43.626Z,101639.69
2022-09-23T00:36:12.254Z,101686.44
2022-09-23T00:38:41.654Z,101626.97
2022-09-23T00:41:10.542Z,101656.25
2022-09-23T00:43:50.289Z,101655.13
2022-09-23T00:46:35.748Z,101627.03
2022-09-23T00:49:10.796Z,101627.34
2022-09-23T00:51:43.754Z,101637.66
2022-09-23T00:54:11.631Z,101626.13
2022-09-23T00:56:39.864Z,101672.00
2022-09-23T00:59:09.835Z,101602.88
2022-09-23T01:01:38.789Z,101636.34
2022-09-23T01:04:25.455Z,101664.63
2022-09-23T01:06:55.001Z,101608.50
2022-09-23T01:09:27.195Z,101613.50
2022-09-23T01:12:32.805Z,101667.81
2022-09-23T01:15:29.837Z,101617.69
2022-09-23T01:18:39.445Z,101633.19
2022-09-23T01:21:29.222Z,101601.81
2022-09-23T01:24:11.034Z,101635.38
2022-09-23T01:26:41.046Z,101632.22
2022-09-23T01:29:44.496Z,101598.94
2022-09-23T01:32:38.966Z,101632.28
2022-09-23T01:35:25.266Z,101601.53
2022-09-23T01:38:10.435Z,101598.06
2022-09-23T01:41:07.968Z,101642.25
2022-09-23T01:43:48.487Z,101602.56
2022-09-23T01:46:34.066Z,101603.34
2022-09-23T01:49:15.655Z,101618.63
2022-09-23T01:51:51.978Z,101592.97
2022-09-23T01:54:37.930Z,101636.94
2022-09-23T01:57:15.645Z,101580.78
2022-09-23T01:59:54.142Z,101608.44
2022-09-23T02:02:39.279Z,101572.84
2022-09-23T02:05:49.716Z,101593.16
2022-09-23T02:08:41.487Z,101573.47
2022-09-23T02:11:18.595Z,101584.38
2022-09-23T02:13:58.292Z,101609.66
2022-09-23T02:16:46.200Z,101577.66
2022-09-23T02:19:15.658Z,101625.22
2022-09-23T02:21:50.212Z,101597.44
2022-09-23T02:24:26.207Z,101548.06
2022-09-23T02:26:58.918Z,101605.13
2022-09-23T02:29:43.217Z,101595.19
2022-09-23T02:32:33.241Z,101578.44
2022-09-23T02:35:33.793Z,101579.88
2022-09-23T02:38:12.319Z,101605.84
2022-09-23T02:40:51.011Z,101576.41
2022-09-23T02:43:54.317Z,101545.09
2022-09-23T02:46:23.229Z,101582.47
2022-09-23T02:48:55.528Z,101587.41
2022-09-23T02:51:25.364Z,101560.00
2022-09-23T02:53:55.896Z,101582.31
2022-09-23T02:56:22.375Z,101561.09
2022-09-23T02:58:51.863Z,101564.09
2022-09-23T03:01:19.013Z,101576.81
2022-09-23T03:04:06.856Z,101581.34
2022-09-23T03:06:45.509Z,101575.66
2022-09-23T03:09:22.441Z,101560.59
2022-09-23T03:11:59.295Z,101548.97
2022-09-23T03:14:33.294Z,101525.63
2022-09-23T03:17:15.998Z,101509.91
2022-09-23T03:20:10.037Z,101570.44
2022-09-23T03:22:48.621Z,101553.25
2022-09-23T03:25:19.707Z,101572.31
2022-09-23T03:27:46.126Z,101558.38
2022-09-23T03:30:13.778Z,101566.94
2022-09-23T03:32:45.520Z,101564.69
2022-09-23T03:35:13.368Z,101549.13
2022-09-23T03:37:47.133Z,101548.88
2022-09-23T03:40:24.010Z,101556.88
2022-09-23T03:42:51.442Z,101557.41
2022-09-23T03:45:22.006Z,101527.91
2022-09-23T03:47:48.457Z,101539.78
2022-09-23T03:50:17.293Z,101528.31
2022-09-23T03:52:44.373Z,101522.97
2022-09-23T03:55:11.507Z,101534.28
2022-09-23T03:57:38.368Z,101542.50
2022-09-23T04:00:08.109Z,101538.75
2022-09-23T04:02:34.700Z,101535.94
2022-09-23T04:05:01.271Z,101523.66
2022-09-23T04:07:28.177Z,101521.59
2022-09-23T04:09:55.080Z,101521.78
2022-09-23T04:12:21.591Z,101512.13
2022-09-23T04:14:48.309Z,101516.81
2022-09-23T04:17:14.959Z,101530.91
2022-09-23T04:19:41.428Z,101507.50
2022-09-23T04:22:08.726Z,101499.47
2022-09-23T04:24:40.220Z,101519.78
2022-09-23T04:27:06.659Z,101491.47
2022-09-23T04:29:33.130Z,101507.91
2022-09-23T04:31:59.757Z,101497.25
2022-09-23T04:34:26.284Z,101528.47
2022-09-23T04:36:55.776Z,101476.38
2022-09-23T04:39:22.399Z,101487.03
2022-09-23T04:41:48.827Z,101492.31
2022-09-23T04:44:15.783Z,101496.94
2022-09-23T04:46:44.050Z,101495.16
2022-09-23T04:49:10.949Z,101486.22
2022-09-23T04:51:37.503Z,101489.41
2022-09-23T04:54:04.094Z,101494.53
2022-09-23T04:56:32.746Z,101471.34
2022-09-23T05:09:57.771Z,101486.53
2022-09-23T05:17:28.651Z,101515.72
2022-09-23T05:20:43.520Z,101449.84
2022-09-23T05:24:24.874Z,101445.69
2022-09-23T05:33:53.285Z,101483.94
2022-09-23T05:36:21.589Z,101519.25
2022-09-23T05:38:50.070Z,101492.78
2022-09-23T05:41:18.228Z,101473.03
2022-09-23T05:43:44.970Z,101509.25
2022-09-23T05:46:12.613Z,101512.38
2022-09-23T05:48:40.303Z,101461.06
2022-09-23T05:51:13.075Z,101504.91
2022-09-23T05:53:41.726Z,101502.66
2022-09-23T05:56:08.291Z,101474.66
2022-09-23T05:58:34.967Z,101509.28
2022-09-23T06:01:01.596Z,101486.34
2022-09-23T06:03:28.231Z,101470.41
2022-09-23T06:05:55.478Z,101516.41
2022-09-23T06:08:23.299Z,101501.94
2022-09-23T06:10:54.328Z,101508.03
2022-09-23T06:13:23.775Z,101461.50
2022-09-23T06:15:54.044Z,101496.78
2022-09-23T06:18:20.811Z,101494.88
2022-09-23T06:20:48.264Z,101515.34
2022-09-23T06:23:14.933Z,101481.94
2022-09-23T06:25:44.065Z,101512.16
2022-09-23T06:28:15.385Z,101474.25
2022-09-23T06:30:42.765Z,101522.97
2022-09-23T06:33:10.185Z,101449.88
2022-09-23T06:35:37.044Z,101455.16
2022-09-23T06:38:05.222Z,101474.72
2022-09-23T06:40:35.683Z,101453.16
2022-09-23T06:43:19.497Z,101472.28
2022-09-23T06:45:46.299Z,101496.91
2022-09-23T06:48:18.174Z,101515.44
2022-09-23T06:50:46.914Z,101465.44
2022-09-23T06:53:13.653Z,101510.66
2022-09-23T06:56:01.140Z,101523.69
2022-09-23T06:58:31.849Z,101441.09
2022-09-23T07:01:09.665Z,101509.81
2022-09-23T07:03:37.121Z,101502.47
2022-09-23T07:06:04.327Z,101504.78
2022-09-23T07:08:37.964Z,101500.69
2022-09-23T07:11:24.155Z,101491.00
2022-09-23T07:13:50.936Z,101469.09
2022-09-23T07:27:02.604Z,101450.31
2022-09-23T07:37:10.746Z,101519.31
2022-09-23T08:20:42.594Z,101483.75
2022-09-23T08:23:14.412Z,101457.78
2022-09-23T08:25:46.859Z,101456.72
2022-09-23T08:28:45.741Z,101492.78
2022-09-23T08:33:56.066Z,101463.47
2022-09-23T09:15:15.675Z,101436.97
2022-09-23T09:33:47.218Z,101405.66
2022-09-23T09:49:18.841Z,101445.56
2022-09-23T10:09:23.115Z,101412.81
2022-09-23T10:15:46.839Z,101400.50
2022-09-23T10:23:38.543Z,101413.03
2022-09-23T11:52:51.232Z,101293.25
2022-09-23T11:56:32.832Z,101275.13
2022-09-23T11:59:40.209Z,101323.19
2022-09-23T12:03:01.717Z,101264.16
2022-09-23T12:06:44.355Z,101304.13
2022-09-23T12:11:40.362Z,101246.94
2022-09-23T12:17:58.732Z,101290.88
2022-09-23T12:28:51.885Z,101270.41
2022-09-23T12:31:24.710Z,101225.44
2022-09-23T12:41:50.231Z,101214.66
2022-09-23T12:45:26.269Z,101262.22
2022-09-23T12:51:32.095Z,101255.13
2022-09-23T12:54:04.472Z,101202.56
2022-09-23T12:56:41.152Z,101257.09
2022-09-23T13:00:06.464Z,101203.03
2022-09-23T13:41:01.417Z,101155.19
2022-09-23T13:43:34.723Z,101204.28
2022-09-23T14:19:18.615Z,101175.91
2022-09-23T14:21:55.977Z,101168.16
2022-09-23T14:25:25.177Z,101147.50
2022-09-23T14:38:41.833Z,101099.06
2022-09-23T14:41:25.186Z,101087.31
2022-09-23T14:43:58.889Z,101130.34
2022-09-23T14:46:31.077Z,101126.25
2022-09-23T14:49:03.080Z,101123.19
2022-09-23T14:51:34.053Z,101138.59
2022-09-23T14:54:38.095Z,101133.50
2022-09-23T14:57:48.980Z,101116.84
2022-09-23T15:00:27.771Z,101139.69
2022-09-23T15:03:02.620Z,101112.25
2022-09-23T15:05:45.005Z,101100.41
2022-09-23T15:08:18.699Z,101136.19
2022-09-23T15:10:46.265Z,101104.41
2022-09-23T15:13:19.891Z,101097.72
2022-09-23T15:15:47.250Z,101114.09
2022-09-23T15:18:24.955Z,101142.56
2022-09-23T15:20:53.839Z,101086.22
2022-09-23T15:23:43.318Z,101110.91
2022-09-23T15:26:12.491Z,101118.66
2022-09-23T15:28:39.418Z,101072.31
2022-09-23T15:31:06.237Z,101066.09
2022-09-23T15:33:33.733Z,101112.22
2022-09-23T15:36:00.282Z,101103.88
2022-09-23T15:38:29.671Z,101101.69
2022-09-23T15:40:56.441Z,101090.97
2022-09-23T15:43:27.070Z,101108.75
2022-09-23T15:45:57.756Z,101098.03
2022-09-23T15:48:39.608Z,101059.63
2022-09-23T15:51:09.393Z,101084.97
2022-09-23T15:53:38.143Z,101082.63
2022-09-23T15:56:05.341Z,101084.69
2022-09-23T15:58:32.484Z,101065.03
2022-09-23T16:00:59.905Z,101095.00
2022-09-23T16:03:33.557Z,101102.34
2022-09-23T16:06:03.367Z,101087.91
2022-09-23T16:08:36.532Z,101084.13
2022-09-23T16:11:03.384Z,101086.78
2022-09-23T16:13:29.930Z,101100.25
2022-09-23T16:16:27.930Z,101104.16
2022-09-23T16:18:55.364Z,101066.47
2022-09-23T16:25:31.848Z,101110.25
2022-09-23T16:27:59.019Z,101086.94
2022-09-23T16:30:30.761Z,101078.69
2022-09-23T16:33:25.261Z,101050.34
2022-09-23T16:35:51.936Z,101044.06
2022-09-23T16:38:18.440Z,101090.03
2022-09-23T16:40:47.861Z,101087.53
2022-09-23T16:43:17.122Z,101089.97
2022-09-23T16:45:46.595Z,101065.25
2022-09-23T16:48:13.704Z,101049.84
2022-09-23T16:50:40.600Z,101033.06
2022-09-23T16:53:07.179Z,101079.50
2022-09-23T16:55:33.716Z,101064.53
2022-09-23T17:00:59.677Z,101066.84
2022-09-23T17:03:47.366Z,101073.69
2022-09-23T17:06:14.644Z,101032.53
2022-09-23T17:08:42.577Z,101076.56
2022-09-23T17:11:14.461Z,101041.16
2022-09-23T17:13:42.420Z,101054.06
2022-09-23T17:16:11.959Z,101061.16
2022-09-23T17:18:39.148Z,101069.22
2022-09-23T17:21:07.865Z,101071.78
2022-09-23T17:23:36.554Z,101058.47
2022-09-23T17:30:45.875Z,101011.31
2022-09-23T17:33:30.021Z,101023.44
2022-09-23T17:36:01.263Z,101036.09
2022-09-23T17:38:33.663Z,101046.06
2022-09-23T17:47:48.040Z,101051.72
2022-09-23T17:50:15.001Z,101043.16
2022-09-23T17:52:41.696Z,101047.09
2022-09-23T17:55:17.136Z,101068.00
2022-09-23T17:58:32.056Z,101038.69
2022-09-23T18:00:59.441Z,101016.53
2022-09-23T18:03:27.946Z,101047.91
2022-09-23T18:06:57.268Z,101025.47
2022-09-23T18:20:50.475Z,101058.34
2022-09-23T21:00:52.879Z,100987.59
2022-09-23T21:10:24.944Z,100990.25
2022-09-23T21:13:17.894Z,100982.34
2022-09-23T21:15:44.897Z,100985.97
2022-09-23T21:19:30.199Z,101006.13
2022-09-23T21:21:56.019Z,100951.53
2022-09-23T21:34:48.014Z,100943.41
2022-09-23T21:38:39.143Z,100955.31
2022-09-23T21:51:01.231Z,100941.41
2022-09-23T22:01:29.087Z,101007.03
2022-09-23T22:04:42.474Z,101001.59
2022-09-23T22:10:02.230Z,100950.47
2022-09-23T22:12:31.827Z,100935.66
2022-09-23T22:15:00.778Z,100961.00
2022-09-23T22:17:31.685Z,100942.97
2022-09-23T22:20:02.262Z,100989.50
2022-09-23T22:22:29.053Z,100935.81
2022-09-23T22:24:55.829Z,100992.28
2022-09-23T22:27:24.008Z,100942.81
2022-09-23T22:30:09.506Z,100944.78
2022-09-23T22:32:45.024Z,100976.56
2022-09-23T22:35:19.869Z,100937.06
2022-09-23T22:37:48.119Z,100923.97
2022-09-23T22:40:15.971Z,100944.28
2022-09-23T22:42:43.840Z,100949.47
2022-09-23T22:45:11.894Z,100959.75
2022-09-23T22:47:45.822Z,100934.94
2022-09-23T22:50:14.653Z,100913.84
2022-09-23T22:52:49.481Z,100906.03
2022-09-23T22:55:25.568Z,100906.31
2022-09-23T22:58:21.233Z,100916.13
2022-09-23T23:00:48.683Z,100919.69
2022-09-23T23:03:26.822Z,100933.50
2022-09-23T23:06:00.021Z,100909.94
2022-09-23T23:08:32.631Z,100925.75
2022-09-23T23:11:05.440Z,100922.34
2022-09-23T23:13:32.976Z,100944.47
2022-09-23T23:16:05.003Z,100903.75
2022-09-23T23:18:39.666Z,100933.72
2022-09-23T23:21:17.437Z,100895.13
2022-09-23T23:23:47.701Z,100922.63
2022-09-23T23:26:20.876Z,100934.84
2022-09-23T23:28:49.781Z,100900.22
2022-09-23T23:31:21.658Z,100925.94
2022-09-23T23:33:51.856Z,100923.78
2022-09-23T23:36:22.120Z,100892.22
2022-09-23T23:38:51.795Z,100907.38
2022-09-23T23:48:52.173Z,100928.31
2022-09-23T23:52:29.639Z,100908.38
2022-09-23T23:55:13.203Z,100877.53
